createdAt,value
2022-08-05T00:00:17.836Z,67.20
2022-08-05T00:02:50.582Z,67.10
2022-08-05T00:06:02.890Z,67.10
2022-08-05T00:08:19.837Z,67.20
2022-08-05T00:10:53.180Z,67.20
2022-08-05T00:13:20.149Z,67.30
2022-08-05T00:16:08.579Z,67.40
2022-08-05T00:18:37.964Z,67.50
2022-08-05T00:21:06.513Z,67.70
2022-08-05T00:23:45.643Z,67.80
2022-08-05T00:26:22.142Z,67.90
2022-08-05T00:28:49.517Z,68.00
2022-08-05T00:31:54.290Z,68.10
2022-08-05T00:34:54.547Z,68.20
2022-08-05T00:37:11.701Z,68.30
2022-08-05T00:39:44.455Z,68.40
2022-08-05T00:42:36.775Z,68.40
2022-08-05T00:45:08.576Z,68.40
2022-08-05T00:47:56.409Z,68.50
2022-08-05T00:50:25.775Z,68.50
2022-08-05T00:52:55.166Z,68.60
2022-08-05T00:55:23.046Z,68.60
2022-08-05T00:58:01.412Z,68.70
2022-08-05T01:00:32.046Z,68.70
2022-08-05T01:03:00.828Z,68.80
2022-08-05T01:05:27.993Z,68.80
2022-08-05T01:08:40.930Z,68.80
2022-08-05T01:10:59.680Z,68.80
2022-08-05T01:13:57.550Z,68.80
2022-08-05T01:16:39.135Z,68.80
2022-08-05T01:20:00.949Z,68.80
2022-08-05T01:22:41.601Z,68.90
2022-08-05T01:25:23.314Z,68.90
2022-08-05T01:28:22.350Z,68.90
2022-08-05T01:31:02.891Z,68.90
2022-08-05T01:33:36.133Z,68.90
2022-08-05T01:36:13.126Z,68.80
2022-08-05T01:38:48.299Z,68.80
2022-08-05T01:41:21.964Z,68.80
2022-08-05T01:43:51.234Z,68.80
2022-08-05T01:46:42.669Z,68.80
2022-08-05T01:49:24.313Z,68.80
2022-08-05T01:51:58.807Z,68.80
2022-08-05T01:54:34.428Z,68.90
2022-08-05T01:58:10.553Z,68.90
2022-08-05T02:00:06.067Z,68.90
2022-08-05T02:02:51.106Z,68.90
2022-08-05T02:05:25.727Z,69.10
2022-08-05T02:08:00.185Z,69.20
2022-08-05T02:10:35.256Z,69.20
2022-08-05T02:13:15.936Z,69.30
2022-08-05T02:16:04.251Z,69.40
2022-08-05T02:18:53.299Z,69.60
2022-08-05T02:21:26.536Z,69.60
2022-08-05T02:23:59.375Z,69.70
2022-08-05T02:26:34.039Z,69.80
2022-08-05T02:29:02.045Z,69.90
2022-08-05T02:31:34.897Z,70.00
2022-08-05T02:34:09.339Z,70.10
2022-08-05T02:36:42.703Z,70.20
2022-08-05T02:39:11.029Z,70.20
2022-08-05T02:41:57.626Z,70.30
2022-08-05T02:44:29.054Z,70.30
2022-08-05T02:47:00.193Z,70.40
2022-08-05T02:49:36.503Z,70.40
2022-08-05T02:52:29.487Z,70.50
2022-08-05T02:54:58.860Z,70.60
2022-08-05T02:58:12.294Z,70.70
2022-08-05T03:00:17.661Z,70.80
2022-08-05T03:02:47.745Z,70.90
2022-08-05T03:05:16.070Z,70.90
2022-08-05T03:08:06.594Z,71.00
2022-08-05T03:10:31.369Z,70.90
2022-08-05T03:15:24.656Z,71.00
2022-08-05T03:17:57.486Z,71.00
2022-08-05T03:20:25.378Z,71.00
2022-08-05T03:22:57.311Z,71.00
2022-08-05T03:25:32.442Z,71.00
2022-08-05T03:28:02.372Z,71.00
2022-08-05T03:30:34.602Z,71.00
2022-08-05T03:33:07.229Z,71.10
2022-08-05T03:35:40.471Z,71.00
2022-08-05T03:38:11.304Z,71.10
2022-08-05T03:40:47.287Z,71.10
2022-08-05T03:44:09.202Z,71.10
2022-08-05T03:46:04.913Z,71.10
2022-08-05T03:48:35.437Z,71.10
2022-08-05T03:52:39.332Z,71.10
2022-08-05T03:55:51.303Z,71.00
2022-08-05T03:57:44.458Z,70.90
2022-08-05T04:00:16.314Z,70.80
2022-08-05T04:02:57.697Z,70.80
2022-08-05T04:05:33.600Z,70.70
2022-08-05T04:08:29.706Z,70.70
2022-08-05T04:10:56.435Z,70.70
2022-08-05T04:13:25.550Z,70.70
2022-08-05T04:16:03.150Z,70.70
2022-08-05T04:18:34.417Z,70.70
2022-08-05T04:21:02.479Z,70.60
2022-08-05T04:24:05.322Z,70.70
2022-08-05T04:26:18.782Z,70.70
2022-08-05T04:28:51.122Z,70.70
2022-08-05T04:31:20.078Z,70.70
2022-08-05T04:34:18.905Z,70.80
2022-08-05T04:36:45.455Z,70.90
2022-08-05T04:39:13.703Z,70.90
2022-08-05T04:41:40.822Z,71.00
2022-08-05T04:44:09.462Z,71.10
2022-08-05T04:46:38.169Z,71.10
2022-08-05T04:49:12.333Z,71.20
2022-08-05T04:51:43.301Z,71.40
2022-08-05T04:54:10.575Z,71.50
2022-08-05T04:56:39.484Z,71.70
2022-08-05T04:59:17.439Z,71.80
2022-08-05T05:02:35.675Z,72.00
2022-08-05T05:04:38.178Z,72.10
2022-08-05T05:07:09.371Z,72.30
2022-08-05T05:09:37.396Z,72.50
2022-08-05T05:12:06.209Z,72.60
2022-08-05T05:14:33.360Z,72.70
2022-08-05T05:17:03.801Z,72.80
2022-08-05T05:19:36.611Z,72.80
2022-08-05T05:22:24.411Z,72.90
2022-08-05T05:25:00.164Z,73.10
2022-08-05T05:27:44.946Z,73.20
2022-08-05T05:30:29.783Z,73.40
2022-08-05T05:33:09.210Z,73.60
2022-08-05T05:35:45.887Z,73.70
2022-08-05T05:38:14.348Z,73.80
2022-08-05T05:40:50.039Z,74.00
2022-08-05T05:43:54.442Z,74.10
2022-08-05T05:46:16.326Z,74.20
2022-08-05T05:48:48.121Z,74.30
2022-08-05T05:51:23.317Z,74.40
2022-08-05T05:53:57.522Z,74.40
2022-08-05T05:56:32.271Z,74.40
2022-08-05T05:59:06.803Z,74.50
2022-08-05T06:01:39.416Z,74.50
2022-08-05T06:04:12.695Z,74.40
2022-08-05T06:06:42.827Z,74.50
2022-08-05T06:09:17.300Z,74.50
2022-08-05T06:12:01.130Z,74.60
2022-08-05T06:14:30.798Z,74.70
2022-08-05T06:16:58.442Z,74.70
2022-08-05T06:19:34.233Z,74.80
2022-08-05T06:22:06.470Z,74.70
2022-08-05T06:24:35.286Z,74.70
2022-08-05T06:27:03.897Z,74.80
2022-08-05T06:29:52.008Z,74.70
2022-08-05T06:32:26.385Z,74.60
2022-08-05T06:34:58.350Z,74.70
2022-08-05T06:37:52.250Z,74.80
2022-08-05T06:40:18.442Z,74.80
2022-08-05T06:42:52.083Z,74.80
2022-08-05T06:45:44.441Z,74.40
2022-08-05T06:48:44.358Z,74.10
2022-08-05T06:50:57.193Z,74.00
2022-08-05T06:53:28.425Z,73.90
2022-08-05T06:56:00.557Z,73.80
2022-08-05T06:58:29.873Z,73.70
2022-08-05T07:01:02.716Z,73.60
2022-08-05T07:03:32.894Z,73.40
2022-08-05T07:06:05.863Z,73.30
2022-08-05T07:08:43.113Z,73.30
2022-08-05T07:11:15.841Z,72.80
2022-08-05T07:14:02.528Z,72.60
2022-08-05T07:17:56.658Z,72.50
2022-08-05T07:20:16.806Z,72.20
2022-08-05T07:22:28.875Z,72.10
2022-08-05T07:25:23.720Z,72.10
2022-08-05T07:27:57.566Z,72.10
2022-08-05T07:30:31.993Z,71.90
2022-08-05T07:33:09.625Z,71.90
2022-08-05T07:36:03.736Z,71.90
2022-08-05T07:38:33.491Z,71.30
2022-08-05T07:42:06.830Z,71.10
2022-08-05T07:43:59.326Z,71.10
2022-08-05T07:46:28.180Z,70.80
2022-08-05T07:49:01.942Z,70.50
2022-08-05T07:51:36.625Z,70.20
2022-08-05T07:54:08.454Z,69.60
2022-08-05T07:57:00.002Z,69.10
2022-08-05T07:59:38.825Z,69.00
2022-08-05T08:02:16.959Z,68.60
2022-08-05T08:04:48.657Z,68.30
2022-08-05T08:07:22.078Z,68.10
2022-08-05T08:09:52.521Z,68.00
2022-08-05T08:12:36.994Z,67.90
2022-08-05T08:15:15.071Z,67.50
2022-08-05T08:17:50.577Z,67.20
2022-08-05T08:21:00.266Z,66.80
2022-08-05T08:24:00.045Z,66.30
2022-08-05T08:26:00.870Z,66.20
2022-08-05T08:28:36.259Z,65.70
2022-08-05T08:31:06.796Z,65.70
2022-08-05T08:33:38.103Z,65.30
2022-08-05T08:36:38.496Z,64.90
2022-08-05T08:38:59.050Z,64.50
2022-08-05T08:41:50.633Z,63.60
2022-08-05T08:45:22.447Z,63.80
2022-08-05T08:47:46.899Z,63.20
2022-08-05T08:50:22.218Z,62.00
2022-08-05T08:52:51.857Z,61.30
2022-08-05T08:56:01.924Z,60.80
2022-08-05T08:58:08.891Z,61.00
2022-08-05T09:00:36.329Z,61.10
2022-08-05T09:03:16.281Z,61.10
2022-08-05T09:06:07.797Z,60.90
2022-08-05T09:08:35.114Z,60.20
2022-08-05T09:11:07.722Z,60.20
2022-08-05T09:14:01.130Z,60.30
2022-08-05T09:16:23.398Z,59.50
2022-08-05T09:18:55.491Z,59.70
2022-08-05T09:22:23.624Z,59.70
2022-08-05T09:24:12.921Z,59.80
2022-08-05T09:26:46.325Z,59.80
2022-08-05T09:29:18.402Z,59.40
2022-08-05T09:32:41.210Z,58.60
2022-08-05T09:34:55.066Z,58.40
2022-08-05T09:38:16.288Z,58.10
2022-08-05T09:40:38.203Z,58.00
2022-08-05T09:43:08.389Z,57.50
2022-08-05T09:46:06.204Z,57.50
2022-08-05T09:48:26.982Z,57.30
2022-08-05T09:51:14.991Z,56.70
2022-08-05T09:53:54.544Z,55.90
2022-08-05T09:56:29.939Z,56.00
2022-08-05T09:59:04.352Z,56.40
2022-08-05T10:01:33.793Z,55.20
2022-08-05T10:04:12.404Z,54.70
2022-08-05T10:06:59.627Z,55.20
2022-08-05T10:09:29.561Z,55.40
2022-08-05T10:12:30.436Z,55.60
2022-08-05T10:15:25.705Z,55.80
2022-08-05T10:18:23.071Z,56.20
2022-08-05T10:21:15.698Z,56.30
2022-08-05T10:23:59.375Z,56.30
2022-08-05T10:26:32.565Z,56.10
2022-08-05T10:29:01.161Z,54.90
2022-08-05T10:32:53.685Z,55.20
2022-08-05T10:34:15.413Z,55.10
2022-08-05T10:36:44.447Z,55.00
2022-08-05T10:39:25.078Z,54.90
2022-08-05T10:42:11.816Z,55.10
2022-08-05T10:44:43.827Z,55.20
2022-08-05T10:47:26.014Z,54.40
2022-08-05T10:50:31.901Z,54.10
2022-08-05T10:53:01.133Z,54.40
2022-08-05T10:55:38.431Z,53.40
2022-08-05T10:58:11.364Z,52.10
2022-08-05T11:00:42.129Z,52.60
2022-08-05T11:03:24.700Z,53.20
2022-08-05T11:06:16.095Z,53.70
2022-08-05T11:09:32.344Z,54.00
2022-08-05T11:12:55.728Z,54.10
2022-08-05T11:15:59.414Z,54.40
2022-08-05T11:18:34.366Z,53.60
2022-08-05T11:21:11.179Z,53.30
2022-08-05T11:24:04.964Z,53.50
2022-08-05T11:26:40.551Z,52.70
2022-08-05T11:29:43.280Z,53.20
2022-08-05T11:32:27.932Z,52.80
2022-08-05T11:34:57.340Z,53.10
2022-08-05T11:38:29.634Z,52.40
2022-08-05T11:41:35.556Z,52.10
2022-08-05T11:44:06.291Z,52.50
2022-08-05T11:46:58.432Z,52.80
2022-08-05T11:49:33.763Z,53.20
2022-08-05T11:52:02.034Z,52.30
2022-08-05T11:54:40.666Z,52.60
2022-08-05T11:57:25.241Z,52.00
2022-08-05T11:59:54.523Z,51.90
2022-08-05T12:02:33.465Z,51.40
2022-08-05T12:05:06.954Z,51.30
2022-08-05T12:08:10.542Z,51.40
2022-08-05T12:10:43.710Z,51.40
2022-08-05T12:13:18.680Z,51.60
2022-08-05T12:16:14.378Z,51.60
2022-08-05T12:18:48.659Z,51.50
2022-08-05T12:21:30.258Z,51.70
2022-08-05T12:24:09.864Z,51.40
2022-08-05T12:26:40.928Z,50.90
2022-08-05T12:29:25.364Z,50.50
2022-08-05T12:31:57.904Z,50.50
2022-08-05T12:34:35.698Z,50.20
2022-08-05T12:37:21.613Z,50.20
2022-08-05T12:39:51.899Z,50.90
2022-08-05T12:42:21.697Z,51.70
2022-08-05T12:44:52.497Z,51.40
2022-08-05T12:47:30.571Z,50.50
2022-08-05T12:50:03.508Z,50.00
2022-08-05T12:52:39.125Z,49.90
2022-08-05T12:55:25.380Z,49.30
2022-08-05T12:58:49.373Z,49.50
2022-08-05T13:02:00.488Z,49.60
2022-08-05T13:03:41.616Z,49.30
2022-08-05T13:06:17.286Z,49.20
2022-08-05T13:08:51.942Z,49.00
2022-08-05T13:11:59.740Z,48.30
2022-08-05T13:14:25.038Z,46.90
2022-08-05T13:17:20.647Z,46.70
2022-08-05T13:20:01.198Z,46.80
2022-08-05T13:22:30.017Z,46.70
2022-08-05T13:25:00.804Z,46.60
2022-08-05T13:27:37.938Z,47.00
2022-08-05T13:30:33.920Z,47.30
2022-08-05T13:32:56.381Z,46.70
2022-08-05T13:35:31.318Z,45.90
2022-08-05T13:38:15.724Z,45.50
2022-08-05T13:40:55.693Z,45.60
2022-08-05T13:43:22.656Z,45.50
2022-08-05T13:45:50.868Z,45.20
2022-08-05T13:48:57.601Z,44.80
2022-08-05T13:51:09.613Z,45.10
2022-08-05T13:53:48.259Z,45.30
2022-08-05T13:56:18.190Z,44.60
2022-08-05T13:58:53.053Z,44.80
2022-08-05T14:01:27.442Z,44.20
2022-08-05T14:04:22.147Z,44.30
2022-08-05T14:06:58.644Z,44.20
2022-08-05T14:09:46.236Z,43.40
2022-08-05T14:12:17.624Z,43.10
2022-08-05T14:14:46.342Z,43.30
2022-08-05T14:17:16.882Z,43.20
2022-08-05T14:19:55.156Z,43.10
2022-08-05T14:34:12.062Z,42.50
2022-08-05T14:36:42.308Z,41.00
2022-08-05T14:39:15.729Z,40.60
2022-08-05T14:42:16.775Z,40.80
2022-08-05T14:44:37.546Z,40.20
2022-08-05T14:47:05.354Z,40.50
2022-08-05T14:49:59.693Z,40.70
2022-08-05T14:52:50.444Z,41.00
2022-08-05T14:55:13.895Z,40.80
2022-08-05T14:57:54.804Z,40.20
2022-08-05T15:00:27.918Z,40.30
2022-08-05T15:02:56.912Z,40.70
2022-08-05T15:05:29.967Z,40.70
2022-08-05T15:08:17.976Z,39.20
2022-08-05T15:11:01.487Z,38.90
2022-08-05T15:13:44.909Z,38.90
2022-08-05T15:16:13.780Z,38.80
2022-08-05T15:18:40.774Z,38.90
2022-08-05T15:21:08.764Z,39.00
2022-08-05T15:23:35.811Z,38.90
2022-08-05T15:26:05.148Z,39.00
2022-08-05T15:28:34.230Z,39.10
2022-08-05T15:31:03.570Z,38.90
2022-08-05T15:33:56.734Z,37.50
2022-08-05T15:36:24.435Z,37.80
2022-08-05T15:40:41.042Z,38.00
2022-08-05T15:41:57.398Z,37.70
2022-08-05T15:44:27.631Z,37.70
2022-08-05T15:46:55.757Z,37.90
2022-08-05T15:49:40.984Z,38.00
2022-08-05T15:52:16.222Z,38.10
2022-08-05T15:54:43.543Z,38.00
2022-08-05T15:57:11.260Z,37.70
2022-08-05T15:59:39.622Z,37.40
2022-08-05T16:02:09.663Z,37.20
2022-08-05T16:04:42.368Z,37.00
2022-08-05T16:07:10.755Z,37.10
2022-08-05T16:09:37.946Z,37.10
2022-08-05T16:12:09.321Z,36.80
2022-08-05T16:14:38.562Z,36.90
2022-08-05T16:17:05.614Z,36.80
2022-08-05T16:20:04.420Z,35.90
2022-08-05T16:22:24.355Z,36.20
2022-08-05T16:24:55.021Z,36.20
2022-08-05T16:27:46.923Z,36.50
2022-08-05T16:30:23.412Z,36.70
2022-08-05T16:32:54.107Z,36.40
2022-08-05T16:35:27.778Z,35.90
2022-08-05T16:38:15.524Z,35.80
2022-08-05T16:40:47.740Z,35.50
2022-08-05T16:43:19.344Z,35.30
2022-08-05T16:46:04.850Z,35.30
2022-08-05T16:48:35.510Z,35.70
2022-08-05T16:51:09.362Z,35.90
2022-08-05T16:54:04.955Z,35.70
2022-08-05T16:56:26.646Z,35.70
2022-08-05T16:58:54.338Z,35.80
2022-08-05T17:01:21.663Z,35.60
2022-08-05T17:03:52.077Z,35.90
2022-08-05T17:06:19.971Z,36.40
2022-08-05T17:08:52.146Z,36.90
2022-08-05T17:11:23.855Z,37.00
2022-08-05T17:14:00.516Z,36.90
2022-08-05T17:16:36.244Z,36.80
2022-08-05T17:19:09.595Z,36.80
2022-08-05T17:21:39.561Z,37.20
2022-08-05T17:24:18.649Z,37.40
2022-08-05T17:26:58.166Z,37.50
2022-08-05T17:29:33.502Z,37.90
2022-08-05T17:32:07.117Z,38.40
2022-08-05T17:34:35.488Z,38.60
2022-08-05T17:37:04.597Z,38.70
2022-08-05T17:39:51.172Z,38.90
2022-08-05T17:42:25.739Z,39.10
2022-08-05T17:44:56.010Z,39.40
2022-08-05T17:47:23.744Z,39.70
2022-08-05T17:50:03.635Z,40.00
2022-08-05T17:52:35.191Z,40.10
2022-08-05T17:55:21.720Z,39.90
2022-08-05T17:57:50.290Z,40.10
2022-08-05T18:00:18.545Z,40.10
2022-08-05T18:02:47.294Z,40.50
2022-08-05T18:05:17.042Z,41.00
2022-08-05T18:07:44.800Z,41.20
2022-08-05T18:10:14.076Z,40.70
2022-08-05T18:12:49.671Z,40.50
2022-08-05T18:15:16.771Z,41.00
2022-08-05T18:18:00.596Z,41.20
2022-08-05T18:20:32.395Z,41.50
2022-08-05T18:23:00.563Z,41.80
2022-08-05T18:25:36.279Z,41.90
2022-08-05T18:28:05.733Z,41.90
2022-08-05T18:30:39.171Z,41.90
2022-08-05T18:33:08.565Z,42.00
2022-08-05T18:36:00.553Z,42.10
2022-08-05T18:38:28.885Z,41.90
2022-08-05T18:41:55.689Z,42.00
2022-08-05T18:43:48.925Z,42.10
2022-08-05T18:46:19.741Z,42.30
2022-08-05T18:48:52.451Z,42.30
2022-08-05T18:52:05.877Z,42.40
2022-08-05T18:54:31.069Z,42.80
2022-08-05T18:57:01.047Z,43.30
2022-08-05T18:59:44.113Z,43.60
2022-08-05T19:02:27.446Z,44.00
2022-08-05T19:05:02.137Z,44.10
2022-08-05T19:07:48.281Z,44.10
2022-08-05T19:10:17.209Z,44.40
2022-08-05T19:12:46.121Z,44.40
2022-08-05T19:15:58.295Z,44.50
2022-08-05T19:18:10.132Z,44.60
2022-08-05T19:20:41.833Z,44.80
2022-08-05T19:24:03.271Z,45.00
2022-08-05T19:26:04.857Z,45.30
2022-08-05T19:28:35.510Z,45.60
2022-08-05T19:31:05.858Z,45.90
2022-08-05T19:33:36.804Z,46.20
2022-08-05T19:36:08.859Z,46.40
2022-08-05T19:38:36.672Z,46.50
2022-08-05T19:41:09.059Z,46.40
2022-08-05T19:44:06.793Z,46.60
2022-08-05T19:46:30.206Z,46.90
2022-08-05T19:49:04.130Z,47.20
2022-08-05T19:52:04.300Z,47.50
2022-08-05T19:54:28.409Z,47.60
2022-08-05T19:56:59.832Z,47.80
2022-08-05T20:00:02.098Z,48.00
2022-08-05T20:02:17.947Z,48.10
2022-08-05T20:04:45.837Z,48.30
2022-08-05T20:07:14.134Z,48.30
2022-08-05T20:09:54.818Z,48.30
2022-08-05T20:12:24.936Z,48.50
2022-08-05T20:14:53.232Z,48.80
2022-08-05T20:17:23.503Z,49.00
2022-08-05T20:19:56.705Z,49.20
2022-08-05T20:22:27.306Z,49.40
2022-08-05T20:24:55.939Z,49.60
2022-08-05T20:27:41.488Z,49.70
2022-08-05T20:30:10.398Z,49.90
2022-08-05T20:32:37.597Z,50.00
2022-08-05T20:35:12.640Z,50.20
2022-08-05T20:38:05.568Z,50.40
2022-08-05T20:40:30.286Z,50.70
2022-08-05T20:43:00.070Z,50.90
2022-08-05T20:45:55.831Z,51.10
2022-08-05T20:48:16.400Z,51.30
2022-08-05T20:50:45.419Z,51.40
2022-08-05T20:53:15.995Z,51.60
2022-08-05T20:56:08.459Z,51.70
2022-08-05T20:58:36.995Z,51.90
2022-08-05T21:01:04.793Z,52.00
2022-08-05T21:03:34.472Z,52.00
2022-08-05T21:06:02.193Z,52.20
2022-08-05T21:08:41.689Z,52.30
2022-08-05T21:11:12.533Z,52.30
2022-08-05T21:13:55.645Z,52.40
2022-08-05T21:16:29.476Z,52.50
2022-08-05T21:19:00.056Z,52.60
2022-08-05T21:21:39.717Z,52.80
2022-08-05T21:24:15.958Z,52.80
2022-08-05T21:26:47.177Z,52.90
2022-08-05T21:29:26.196Z,53.10
2022-08-05T21:31:54.257Z,53.20
2022-08-05T21:34:23.139Z,53.40
2022-08-05T21:36:51.375Z,53.50
2022-08-05T21:39:26.707Z,53.70
2022-08-05T21:42:01.947Z,53.90
2022-08-05T21:44:31.063Z,54.00
2022-08-05T21:46:59.851Z,54.20
2022-08-05T21:49:58.771Z,54.30
2022-08-05T21:52:22.106Z,54.40
2022-08-05T21:54:56.046Z,54.60
2022-08-05T21:57:32.304Z,54.80
2022-08-05T22:00:06.303Z,55.00
2022-08-05T22:02:41.758Z,55.10
2022-08-05T22:05:10.954Z,55.20
2022-08-05T22:07:39.757Z,55.30
2022-08-05T22:10:26.938Z,55.40
2022-08-05T22:12:57.246Z,55.50
2022-08-05T22:16:01.098Z,55.50
2022-08-05T22:18:14.521Z,55.60
2022-08-05T22:20:42.024Z,55.70
2022-08-05T22:24:01.815Z,55.70
2022-08-05T22:26:35.708Z,55.80
2022-08-05T22:29:03.808Z,55.80
2022-08-05T22:31:31.687Z,55.80
2022-08-05T22:34:20.027Z,55.80
2022-08-05T22:36:52.514Z,55.90
2022-08-05T22:39:21.469Z,55.90
2022-08-05T22:42:10.152Z,56.00
2022-08-05T22:44:35.754Z,56.00
2022-08-05T22:47:06.021Z,56.10
2022-08-05T22:50:19.446Z,56.20
2022-08-05T22:52:30.432Z,56.20
2022-08-05T22:55:01.768Z,56.30
2022-08-05T22:57:36.221Z,56.30
2022-08-05T23:00:07.876Z,56.40
2022-08-05T23:02:40.061Z,56.50
2022-08-05T23:05:15.700Z,56.60
2022-08-05T23:07:44.960Z,56.70
2022-08-05T23:10:13.124Z,56.80
2022-08-05T23:12:40.278Z,56.90
2022-08-05T23:15:10.791Z,56.90
2022-08-05T23:18:00.157Z,57.00
2022-08-05T23:20:26.331Z,57.10
2022-08-05T23:22:56.020Z,57.20
2022-08-05T23:25:51.504Z,57.30
2022-08-05T23:28:11.454Z,57.30
2022-08-05T23:30:39.626Z,57.40
2022-08-05T23:33:16.470Z,57.50
2022-08-05T23:35:51.124Z,57.60
2022-08-05T23:38:18.370Z,57.80
2022-08-05T23:40:50.116Z,57.90
2022-08-05T23:43:25.814Z,58.00
2022-08-05T23:46:20.983Z,58.20
2022-08-05T23:49:01.201Z,58.40
2022-08-05T23:51:55.435Z,58.40
2022-08-05T23:54:34.059Z,58.40
2022-08-05T23:57:04.741Z,58.50
